createdAt,value
2017-05-08T00:00:51.385Z,0
2017-05-08T00:02:04.179Z,0
2017-05-08T00:03:16.976Z,0
2017-05-08T00:04:29.766Z,0
2017-05-08T00:05:42.548Z,0
2017-05-08T00:06:55.369Z,0
2017-05-08T00:08:08.154Z,0
2017-05-08T00:09:19.974Z,0
2017-05-08T00:10:32.755Z,0
2017-05-08T00:11:45.359Z,0
2017-05-08T00:12:58.146Z,0
2017-05-08T00:14:10.446Z,0
2017-05-08T00:15:23.233Z,0
2017-05-08T00:16:36.014Z,0
2017-05-08T00:17:48.332Z,0
2017-05-08T00:19:01.120Z,0
2017-05-08T00:20:13.419Z,0
2017-05-08T00:21:25.239Z,0
2017-05-08T00:22:38.025Z,0
2017-05-08T00:23:50.812Z,0
2017-05-08T00:25:03.597Z,0
2017-05-08T00:26:15.899Z,0
2017-05-08T00:27:28.681Z,0
2017-05-08T00:28:41.659Z,0
2017-05-08T00:29:54.446Z,0
2017-05-08T00:31:07.230Z,0
2017-05-08T00:32:19.535Z,0
2017-05-08T00:33:32.521Z,0
2017-05-08T00:34:45.311Z,0
2017-05-08T00:35:58.095Z,0
2017-05-08T00:37:10.882Z,0
2017-05-08T00:38:23.177Z,0
2017-05-08T00:39:35.785Z,0
2017-05-08T00:40:48.569Z,0
2017-05-08T00:42:01.352Z,0
2017-05-08T00:43:13.655Z,0
2017-05-08T00:44:26.159Z,0
2017-05-08T00:45:38.944Z,0
2017-05-08T00:46:50.765Z,0
2017-05-08T00:48:03.555Z,0
2017-05-08T00:49:15.379Z,0
2017-05-08T00:50:28.174Z,0
2017-05-08T00:51:40.971Z,0
2017-05-08T00:52:53.769Z,0
2017-05-08T00:54:06.078Z,0
2017-05-08T00:55:18.103Z,0
2017-05-08T00:56:30.935Z,0
2017-05-08T00:57:43.782Z,0
2017-05-08T00:58:56.721Z,0
2017-05-08T01:00:09.146Z,0
2017-05-08T01:01:22.239Z,0
2017-05-08T01:02:34.599Z,0
2017-05-08T01:03:47.670Z,0
2017-05-08T01:05:00.538Z,0
2017-05-08T01:06:13.341Z,0
2017-05-08T01:07:26.175Z,0
2017-05-08T01:08:38.504Z,0
2017-05-08T01:09:51.416Z,0
2017-05-08T01:11:04.221Z,0
2017-05-08T01:12:17.116Z,0
2017-05-08T01:13:29.965Z,0
2017-05-08T01:14:43.027Z,0
2017-05-08T01:15:56.056Z,0
2017-05-08T01:17:09.405Z,0
2017-05-08T01:18:21.516Z,0
2017-05-08T01:19:34.375Z,0
2017-05-08T01:20:47.453Z,0
2017-05-08T01:21:59.906Z,0
2017-05-08T01:23:12.700Z,0
2017-05-08T01:24:25.313Z,0
2017-05-08T01:25:37.939Z,0
2017-05-08T01:26:50.992Z,0
2017-05-08T01:28:04.624Z,0
2017-05-08T01:29:17.530Z,0
2017-05-08T01:30:30.466Z,0
2017-05-08T01:31:42.845Z,0
2017-05-08T01:32:55.749Z,0
2017-05-08T01:34:09.165Z,0
2017-05-08T01:35:22.445Z,0
2017-05-08T01:36:35.813Z,0
2017-05-08T01:37:48.685Z,0
2017-05-08T01:39:01.470Z,0
2017-05-08T01:40:14.263Z,0
2017-05-08T01:41:27.046Z,0
2017-05-08T01:42:39.841Z,0
2017-05-08T01:43:52.146Z,0
2017-05-08T01:45:04.930Z,0
2017-05-08T01:46:17.235Z,0
2017-05-08T01:47:30.019Z,0
2017-05-08T01:48:42.801Z,0
2017-05-08T01:49:55.782Z,0
2017-05-08T01:51:08.569Z,0
2017-05-08T01:52:21.350Z,0
2017-05-08T01:53:34.134Z,0
2017-05-08T01:54:46.919Z,0
2017-05-08T01:55:59.703Z,0
2017-05-08T01:57:12.483Z,0
2017-05-08T01:58:25.266Z,0
2017-05-08T01:59:37.570Z,0
2017-05-08T02:00:50.357Z,0
2017-05-08T02:02:03.142Z,0
2017-05-08T02:03:15.442Z,0
2017-05-08T02:04:28.229Z,0
2017-05-08T02:05:41.012Z,0
2017-05-08T02:06:53.998Z,0
2017-05-08T02:08:06.784Z,0
2017-05-08T02:09:19.567Z,0
2017-05-08T02:10:32.348Z,0
2017-05-08T02:11:45.334Z,0
2017-05-08T02:12:58.125Z,0
2017-05-08T02:14:10.915Z,0
2017-05-08T02:15:23.701Z,0
2017-05-08T02:16:36.483Z,0
2017-05-08T02:17:49.265Z,0
2017-05-08T02:19:01.573Z,0
2017-05-08T02:20:13.873Z,0
2017-05-08T02:21:26.659Z,0
2017-05-08T02:22:39.739Z,0
2017-05-08T02:23:52.521Z,0
2017-05-08T02:25:05.302Z,0
2017-05-08T02:26:18.085Z,0
2017-05-08T02:27:30.883Z,0
2017-05-08T02:28:43.869Z,0
2017-05-08T02:29:55.689Z,0
2017-05-08T02:31:08.468Z,0
2017-05-08T02:32:21.253Z,0
2017-05-08T02:33:33.557Z,0
2017-05-08T02:34:45.861Z,0
2017-05-08T02:35:58.646Z,0
2017-05-08T02:37:11.434Z,0
2017-05-08T02:38:23.732Z,0
2017-05-08T02:39:36.827Z,0
2017-05-08T02:40:49.613Z,0
2017-05-08T02:42:02.401Z,0
2017-05-08T02:43:14.701Z,0
2017-05-08T02:44:27.479Z,0
2017-05-08T02:45:40.269Z,0
2017-05-08T02:46:52.573Z,0
2017-05-08T02:48:04.871Z,0
2017-05-08T02:49:17.663Z,0
2017-05-08T02:50:30.648Z,0
2017-05-08T02:51:43.428Z,0
2017-05-08T02:52:55.729Z,0
2017-05-08T02:54:08.512Z,0
2017-05-08T02:55:21.298Z,0
2017-05-08T02:56:34.087Z,0
2017-05-08T02:57:46.873Z,0
2017-05-08T02:58:59.706Z,0
2017-05-08T03:00:12.493Z,0
2017-05-08T03:01:25.291Z,0
2017-05-08T03:02:38.078Z,0
2017-05-08T03:03:50.864Z,0
2017-05-08T03:05:03.653Z,0
2017-05-08T03:06:16.436Z,0
2017-05-08T03:07:29.258Z,0
2017-05-08T03:08:42.044Z,0
2017-05-08T03:09:54.831Z,0
2017-05-08T03:11:07.626Z,0
2017-05-08T03:12:20.128Z,0
2017-05-08T03:13:32.430Z,0
2017-05-08T03:14:45.214Z,0
2017-05-08T03:15:58.008Z,0
2017-05-08T03:17:10.345Z,0
2017-05-08T03:18:23.131Z,0
2017-05-08T03:19:35.917Z,0
2017-05-08T03:20:48.703Z,0
2017-05-08T03:22:01.486Z,0
2017-05-08T03:23:14.472Z,0
2017-05-08T03:24:27.259Z,0
2017-05-08T03:25:39.085Z,0
2017-05-08T03:26:51.864Z,0
2017-05-08T03:28:04.172Z,0
2017-05-08T03:29:16.974Z,0
2017-05-08T03:30:29.779Z,0
2017-05-08T03:31:42.080Z,0
2017-05-08T03:32:54.870Z,0
2017-05-08T03:34:07.379Z,0
2017-05-08T03:35:19.679Z,0
2017-05-08T03:36:32.468Z,0
2017-05-08T03:37:44.775Z,0
2017-05-08T03:38:57.558Z,0
2017-05-08T03:40:09.867Z,0
2017-05-08T03:41:21.692Z,0
2017-05-08T03:42:34.478Z,0
2017-05-08T03:43:47.262Z,0
2017-05-08T03:45:00.052Z,0
2017-05-08T03:46:12.835Z,0
2017-05-08T03:47:25.134Z,0
2017-05-08T03:48:37.916Z,0
2017-05-08T03:49:51.002Z,0
2017-05-08T03:51:03.785Z,0
2017-05-08T03:52:16.082Z,0
2017-05-08T03:53:28.865Z,0
2017-05-08T03:54:41.165Z,0
2017-05-08T03:55:53.947Z,0
2017-05-08T03:57:06.737Z,0
2017-05-08T03:58:19.522Z,0
2017-05-08T03:59:32.306Z,0
2017-05-08T04:00:45.389Z,0
2017-05-08T04:01:58.177Z,0
2017-05-08T04:03:10.483Z,0
2017-05-08T04:04:23.265Z,0
2017-05-08T04:05:36.045Z,0
2017-05-08T04:06:48.344Z,0
2017-05-08T04:08:01.126Z,0
2017-05-08T04:09:13.433Z,0
2017-05-08T04:10:26.219Z,0
2017-05-08T04:11:39.200Z,0
2017-05-08T04:12:51.992Z,0
2017-05-08T04:14:04.296Z,0
2017-05-08T04:15:17.092Z,0
2017-05-08T04:16:29.876Z,0
2017-05-08T04:17:42.656Z,0
2017-05-08T04:18:54.957Z,0
2017-05-08T04:20:07.738Z,0
2017-05-08T04:21:20.522Z,0
2017-05-08T04:22:33.309Z,0
2017-05-08T04:23:46.093Z,0
2017-05-08T04:24:58.398Z,0
2017-05-08T04:26:10.699Z,0
2017-05-08T04:27:23.004Z,0
2017-05-08T04:28:35.998Z,0
2017-05-08T04:29:48.783Z,0
2017-05-08T04:31:01.562Z,0
2017-05-08T04:32:14.344Z,0
2017-05-08T04:33:26.678Z,0
2017-05-08T04:34:39.462Z,0
2017-05-08T04:35:52.243Z,0
2017-05-08T04:37:05.023Z,0
2017-05-08T04:38:17.325Z,0
2017-05-08T04:39:30.113Z,0
2017-05-08T04:40:42.912Z,0
2017-05-08T04:41:55.696Z,0
2017-05-08T04:43:08.479Z,0
2017-05-08T04:44:21.076Z,0
2017-05-08T04:45:33.865Z,0
2017-05-08T04:46:46.647Z,0
2017-05-08T04:47:58.955Z,0
2017-05-08T04:49:11.257Z,0
2017-05-08T04:50:23.555Z,0
2017-05-08T04:51:36.372Z,0
2017-05-08T04:52:49.157Z,0
2017-05-08T04:54:01.942Z,0
2017-05-08T04:55:14.927Z,0
2017-05-08T04:56:27.710Z,0
2017-05-08T04:57:40.500Z,0
2017-05-08T04:58:53.280Z,0
2017-05-08T05:00:05.580Z,0
2017-05-08T05:01:18.561Z,0
2017-05-08T05:02:30.859Z,0
2017-05-08T05:03:43.643Z,0
2017-05-08T05:04:56.425Z,0
2017-05-08T05:06:09.033Z,0
2017-05-08T05:07:21.339Z,0
2017-05-08T05:08:34.125Z,0
2017-05-08T05:09:46.427Z,0
2017-05-08T05:10:59.209Z,0
2017-05-08T05:12:12.202Z,0
2017-05-08T05:13:24.996Z,0
2017-05-08T05:14:37.778Z,0
2017-05-08T05:15:50.556Z,0
2017-05-08T05:17:03.168Z,0
2017-05-08T05:18:15.947Z,0
2017-05-08T05:19:28.293Z,0
2017-05-08T05:20:41.083Z,0
2017-05-08T05:21:53.871Z,0
2017-05-08T05:23:06.484Z,0
2017-05-08T05:24:18.826Z,0
2017-05-08T05:25:31.203Z,0
2017-05-08T05:26:44.004Z,0
2017-05-08T05:27:56.800Z,0
2017-05-08T05:29:08.148Z,0
2017-05-08T05:30:20.949Z,0
2017-05-08T05:31:33.746Z,0
2017-05-08T05:32:46.536Z,0
2017-05-08T05:33:58.852Z,0
2017-05-08T05:35:11.645Z,0
2017-05-08T05:36:23.985Z,0
2017-05-08T05:37:36.777Z,0
2017-05-08T05:38:49.777Z,0
2017-05-08T05:40:01.615Z,0
2017-05-08T05:41:14.409Z,0
2017-05-08T05:42:25.756Z,0
2017-05-08T05:43:38.549Z,0
2017-05-08T05:44:51.067Z,0
2017-05-08T05:46:03.861Z,0
2017-05-08T05:47:16.167Z,0
2017-05-08T05:48:28.480Z,0
2017-05-08T05:49:41.575Z,0
2017-05-08T05:50:54.362Z,0
2017-05-08T05:52:06.672Z,0
2017-05-08T05:53:19.462Z,0
2017-05-08T05:54:32.254Z,0
2017-05-08T05:55:45.254Z,0
2017-05-08T05:56:58.056Z,0
2017-05-08T05:58:10.364Z,0
2017-05-08T05:59:23.164Z,0
2017-05-08T06:00:36.258Z,0
2017-05-08T06:01:48.583Z,0
2017-05-08T06:03:01.381Z,0
2017-05-08T06:04:14.171Z,0
2017-05-08T06:05:25.991Z,0
2017-05-08T06:06:38.289Z,0
2017-05-08T06:07:51.077Z,0
2017-05-08T06:09:03.871Z,0
2017-05-08T06:10:16.172Z,0
2017-05-08T06:11:28.781Z,0
2017-05-08T06:12:41.565Z,0
2017-05-08T06:13:54.349Z,0
2017-05-08T06:15:07.129Z,0
2017-05-08T06:16:19.425Z,0
2017-05-08T06:17:31.729Z,0
2017-05-08T06:18:43.552Z,0
2017-05-08T06:19:56.337Z,0
2017-05-08T06:21:08.638Z,0
2017-05-08T06:22:21.251Z,0
2017-05-08T06:23:34.044Z,0
2017-05-08T06:24:46.824Z,0
2017-05-08T06:25:59.127Z,0
2017-05-08T06:27:11.910Z,0
2017-05-08T06:28:24.696Z,0
2017-05-08T06:29:37.482Z,0
2017-05-08T06:30:50.261Z,0
2017-05-08T06:32:03.043Z,0
2017-05-08T06:33:15.819Z,0
2017-05-08T06:34:28.607Z,0
2017-05-08T06:35:41.393Z,0
2017-05-08T06:36:54.174Z,0
2017-05-08T06:38:06.961Z,0
2017-05-08T06:39:19.459Z,0
2017-05-08T06:40:32.238Z,0
2017-05-08T06:41:45.024Z,0
2017-05-08T06:42:57.806Z,0
2017-05-08T06:44:10.583Z,0
2017-05-08T06:45:23.392Z,0
2017-05-08T06:46:36.174Z,0
2017-05-08T06:47:48.954Z,0
2017-05-08T06:49:01.263Z,0
2017-05-08T06:50:14.065Z,0
2017-05-08T06:51:26.857Z,0
2017-05-08T06:52:39.649Z,0
2017-05-08T06:53:52.426Z,0
2017-05-08T06:55:05.041Z,0
2017-05-08T06:56:17.338Z,0
2017-05-08T06:57:29.645Z,0
2017-05-08T06:58:42.430Z,0
2017-05-08T06:59:55.218Z,0
2017-05-08T07:01:08.305Z,0
2017-05-08T07:02:20.613Z,0
2017-05-08T07:03:33.391Z,0
2017-05-08T07:04:46.172Z,0
2017-05-08T07:05:58.952Z,0
2017-05-08T07:07:11.730Z,0
2017-05-08T07:08:24.024Z,0
2017-05-08T07:09:36.812Z,0
2017-05-08T07:10:49.112Z,0
2017-05-08T07:12:01.894Z,0
2017-05-08T07:13:14.673Z,0
2017-05-08T07:14:27.451Z,0
2017-05-08T07:15:40.264Z,0
2017-05-08T07:16:53.054Z,0
2017-05-08T07:18:05.351Z,0
2017-05-08T07:19:18.137Z,0
2017-05-08T07:20:30.434Z,0
2017-05-08T07:21:43.219Z,0
2017-05-08T07:22:56.301Z,0
2017-05-08T07:24:09.080Z,0
2017-05-08T07:25:21.893Z,0
2017-05-08T07:26:34.678Z,0
2017-05-08T07:27:46.979Z,0
2017-05-08T07:28:59.769Z,0
2017-05-08T07:30:12.553Z,0
2017-05-08T07:31:25.336Z,0
2017-05-08T07:32:38.122Z,0
2017-05-08T07:33:50.418Z,0
2017-05-08T07:35:02.713Z,0
2017-05-08T07:36:15.011Z,0
2017-05-08T07:37:27.792Z,0
2017-05-08T07:38:40.092Z,0
2017-05-08T07:39:52.871Z,0
2017-05-08T07:41:05.173Z,0
2017-05-08T07:42:17.951Z,0
2017-05-08T07:43:30.746Z,0
2017-05-08T07:44:43.048Z,0
2017-05-08T07:45:55.344Z,0
2017-05-08T07:47:07.639Z,0
2017-05-08T07:48:19.934Z,0
2017-05-08T07:49:33.010Z,0
2017-05-08T07:50:44.826Z,0
2017-05-08T07:51:57.131Z,0
2017-05-08T07:53:09.912Z,0
2017-05-08T07:54:22.692Z,0
2017-05-08T07:55:34.989Z,0
2017-05-08T07:56:47.773Z,0
2017-05-08T07:57:59.590Z,0
2017-05-08T07:59:12.369Z,0
2017-05-08T08:00:25.146Z,0
2017-05-08T08:01:37.925Z,0
2017-05-08T08:02:50.226Z,0
2017-05-08T08:04:01.560Z,0
2017-05-08T08:05:14.338Z,0
2017-05-08T08:06:27.323Z,0
2017-05-08T08:07:40.103Z,0
2017-05-08T08:08:52.404Z,0
2017-05-08T08:10:04.703Z,0
2017-05-08T08:11:17.485Z,0
2017-05-08T08:12:30.269Z,0
2017-05-08T08:13:42.574Z,0
2017-05-08T08:14:54.871Z,0
2017-05-08T08:16:07.652Z,0
2017-05-08T08:17:20.151Z,0
2017-05-08T08:18:32.451Z,0
2017-05-08T08:19:45.236Z,0
2017-05-08T08:20:58.021Z,0
2017-05-08T08:22:10.853Z,0
2017-05-08T08:23:23.158Z,0
2017-05-08T08:24:35.946Z,0
2017-05-08T08:25:48.743Z,0
2017-05-08T08:27:01.544Z,0
2017-05-08T08:28:13.863Z,0
2017-05-08T08:29:26.176Z,0
2017-05-08T08:30:38.976Z,0
2017-05-08T08:31:50.810Z,0
2017-05-08T08:33:03.414Z,0
2017-05-08T08:34:15.716Z,0
2017-05-08T08:35:28.510Z,0
2017-05-08T08:36:41.294Z,0
2017-05-08T08:37:53.130Z,0
2017-05-08T08:39:05.922Z,0
2017-05-08T08:40:18.230Z,0
2017-05-08T08:41:31.024Z,0
2017-05-08T08:42:43.332Z,0
2017-05-08T08:43:56.125Z,0
2017-05-08T08:45:08.425Z,0
2017-05-08T08:46:20.729Z,0
2017-05-08T08:47:33.518Z,0
2017-05-08T08:48:45.819Z,0
2017-05-08T08:49:57.838Z,0
2017-05-08T08:51:10.137Z,0
2017-05-08T08:52:22.917Z,0
2017-05-08T08:53:35.236Z,0
2017-05-08T08:54:47.054Z,0
2017-05-08T08:55:59.839Z,0
2017-05-08T08:57:12.149Z,0
2017-05-08T08:58:24.937Z,0
2017-05-08T08:59:37.726Z,0
2017-05-08T09:00:50.236Z,0
2017-05-08T09:02:02.536Z,0
2017-05-08T09:03:15.335Z,0
2017-05-08T09:04:28.156Z,0
2017-05-08T09:05:40.934Z,0
2017-05-08T09:06:51.786Z,0
2017-05-08T09:08:04.099Z,0
2017-05-08T09:09:16.883Z,0
2017-05-08T09:10:29.180Z,0
2017-05-08T09:11:42.161Z,0
2017-05-08T09:12:54.458Z,0
2017-05-08T09:14:06.783Z,0
2017-05-08T09:15:19.078Z,0
2017-05-08T09:16:31.374Z,0
2017-05-08T09:17:44.163Z,0
2017-05-08T09:18:55.979Z,0
2017-05-08T09:20:08.761Z,0
2017-05-08T09:21:21.573Z,0
2017-05-08T09:22:34.353Z,0
2017-05-08T09:23:47.138Z,0
2017-05-08T09:24:59.437Z,0
2017-05-08T09:26:11.738Z,0
2017-05-08T09:27:24.516Z,0
2017-05-08T09:28:37.606Z,0
2017-05-08T09:29:49.902Z,0
2017-05-08T09:31:01.722Z,0
2017-05-08T09:32:14.499Z,0
2017-05-08T09:33:27.101Z,0
2017-05-08T09:34:39.405Z,0
2017-05-08T09:35:51.223Z,0
2017-05-08T09:37:03.527Z,0
2017-05-08T09:38:15.342Z,0
2017-05-08T09:39:27.645Z,0
2017-05-08T09:40:40.425Z,0
2017-05-08T09:41:52.726Z,0
2017-05-08T09:43:04.545Z,0
2017-05-08T09:44:17.332Z,0
2017-05-08T09:45:30.111Z,0
2017-05-08T09:46:42.891Z,0
2017-05-08T09:47:55.673Z,0
2017-05-08T09:49:08.454Z,0
2017-05-08T09:50:21.049Z,0
2017-05-08T09:51:32.865Z,0
2017-05-08T09:52:45.168Z,0
2017-05-08T09:53:57.945Z,0
2017-05-08T09:55:10.442Z,0
2017-05-08T09:56:22.739Z,0
2017-05-08T09:57:35.042Z,0
2017-05-08T09:58:47.817Z,0
2017-05-08T09:59:59.636Z,0
2017-05-08T10:01:12.133Z,0
2017-05-08T10:02:24.428Z,0
2017-05-08T10:03:37.206Z,0
2017-05-08T10:04:49.989Z,0
2017-05-08T10:06:02.593Z,0
2017-05-08T10:07:14.406Z,0
2017-05-08T10:08:26.221Z,0
2017-05-08T10:09:39.002Z,0
2017-05-08T10:10:51.296Z,0
2017-05-08T10:12:04.275Z,0
2017-05-08T10:13:17.058Z,0
2017-05-08T10:14:29.839Z,0
2017-05-08T10:15:42.137Z,0
2017-05-08T10:16:54.911Z,0
2017-05-08T10:18:07.207Z,0
2017-05-08T10:19:20.004Z,0
2017-05-08T10:20:32.304Z,0
2017-05-08T10:21:44.609Z,0
2017-05-08T10:22:56.905Z,0
2017-05-08T10:24:09.683Z,0
2017-05-08T10:25:22.498Z,0
2017-05-08T10:26:34.795Z,5
2017-05-08T10:27:47.776Z,5
2017-05-08T10:28:59.594Z,5
2017-05-08T10:30:11.892Z,5
2017-05-08T10:31:23.707Z,5
2017-05-08T10:32:36.484Z,5
2017-05-08T10:33:48.782Z,5
2017-05-08T10:35:01.087Z,5
2017-05-08T10:36:13.880Z,5
2017-05-08T10:37:26.670Z,5
2017-05-08T10:38:39.454Z,5
2017-05-08T10:39:51.758Z,5
2017-05-08T10:41:04.550Z,5
2017-05-08T10:42:17.340Z,5
2017-05-08T10:43:30.128Z,5
2017-05-08T10:44:42.916Z,5
2017-05-08T10:45:55.709Z,5
2017-05-08T10:47:08.051Z,5
2017-05-08T10:48:19.884Z,5
2017-05-08T10:49:32.664Z,5
2017-05-08T10:50:44.014Z,5
2017-05-08T10:51:56.805Z,5
2017-05-08T10:53:09.590Z,5
2017-05-08T10:54:21.407Z,5
2017-05-08T10:55:33.715Z,5
2017-05-08T10:56:46.029Z,5
2017-05-08T10:57:58.337Z,5
2017-05-08T10:59:10.633Z,5
2017-05-08T11:00:23.620Z,5
2017-05-08T11:01:36.411Z,5
2017-05-08T11:02:48.723Z,5
2017-05-08T11:04:00.543Z,5
2017-05-08T11:05:13.330Z,5
2017-05-08T11:06:25.158Z,5
2017-05-08T11:07:37.950Z,5
2017-05-08T11:08:49.282Z,5
2017-05-08T11:10:01.102Z,5
2017-05-08T11:11:13.887Z,5
2017-05-08T11:12:26.679Z,5
2017-05-08T11:13:39.461Z,5
2017-05-08T11:14:51.763Z,5
2017-05-08T11:16:04.074Z,5
2017-05-08T11:17:16.383Z,5
2017-05-08T11:18:29.175Z,5
2017-05-08T11:19:40.989Z,5
2017-05-08T11:20:53.283Z,5
2017-05-08T11:22:05.580Z,5
2017-05-08T11:23:18.080Z,5
2017-05-08T11:24:29.423Z,5
2017-05-08T11:25:41.242Z,10
2017-05-08T11:26:53.546Z,10
2017-05-08T11:28:05.369Z,10
2017-05-08T11:29:18.154Z,20
2017-05-08T11:30:30.454Z,20
2017-05-08T11:31:43.235Z,30
2017-05-08T11:32:56.029Z,35
2017-05-08T11:34:08.326Z,35
2017-05-08T11:35:21.104Z,40
2017-05-08T11:36:33.411Z,40
2017-05-08T11:37:46.193Z,40
2017-05-08T11:38:58.502Z,40
2017-05-08T11:40:10.836Z,45
2017-05-08T11:41:23.141Z,45
2017-05-08T11:42:35.449Z,45
2017-05-08T11:43:47.757Z,45
2017-05-08T11:44:59.576Z,45
2017-05-08T11:46:10.914Z,45
2017-05-08T11:47:22.251Z,45
2017-05-08T11:48:35.046Z,45
2017-05-08T11:49:47.829Z,50
2017-05-08T11:51:00.147Z,50
2017-05-08T11:52:11.966Z,50
2017-05-08T11:53:24.757Z,50
2017-05-08T11:54:37.070Z,50
2017-05-08T11:55:49.895Z,50
2017-05-08T11:57:02.019Z,50
2017-05-08T11:58:14.810Z,50
2017-05-08T11:59:26.633Z,50
2017-05-08T12:00:38.943Z,50
2017-05-08T12:01:51.727Z,50
2017-05-08T12:03:03.551Z,50
2017-05-08T12:04:16.335Z,50
2017-05-08T12:05:28.653Z,50
2017-05-08T12:06:40.956Z,55
2017-05-08T12:07:52.304Z,50
2017-05-08T12:09:05.087Z,55
2017-05-08T12:10:17.875Z,55
2017-05-08T12:11:30.660Z,55
2017-05-08T12:12:43.479Z,55
2017-05-08T12:13:55.300Z,55
2017-05-08T12:15:08.081Z,55
2017-05-08T12:16:20.381Z,55
2017-05-08T12:17:32.714Z,60
2017-05-08T12:18:44.540Z,60
2017-05-08T12:19:56.848Z,60
2017-05-08T12:21:09.151Z,60
2017-05-08T12:22:21.939Z,60
2017-05-08T12:23:34.727Z,60
2017-05-08T12:24:47.035Z,60
2017-05-08T12:25:59.822Z,60
2017-05-08T12:27:12.612Z,60
2017-05-08T12:28:25.400Z,60
2017-05-08T12:29:38.183Z,60
2017-05-08T12:30:50.970Z,60
2017-05-08T12:32:03.275Z,60
2017-05-08T12:33:15.112Z,60
2017-05-08T12:34:27.898Z,60
2017-05-08T12:35:40.680Z,55
2017-05-08T12:36:52.985Z,55
2017-05-08T12:38:04.807Z,55
2017-05-08T12:39:17.509Z,55
2017-05-08T12:40:29.343Z,55
2017-05-08T12:41:42.136Z,60
2017-05-08T12:42:54.967Z,55
2017-05-08T12:45:33.667Z,55
2017-05-08T12:46:45.982Z,55
2017-05-08T12:47:58.772Z,55
2017-05-08T12:49:25.181Z,50
2017-05-08T12:50:38.003Z,55
2017-05-08T12:51:50.844Z,55
2017-05-08T12:53:03.163Z,55
2017-05-08T12:54:14.998Z,55
2017-05-08T12:55:27.810Z,55
2017-05-08T12:56:40.635Z,55
2017-05-08T12:57:53.422Z,55
2017-05-08T12:59:05.727Z,55
2017-05-08T13:00:17.560Z,55
2017-05-08T13:01:30.425Z,55
2017-05-08T13:02:43.218Z,55
2017-05-08T13:03:56.003Z,55
2017-05-08T13:05:08.310Z,55
2017-05-08T13:06:20.613Z,55
2017-05-08T13:07:32.446Z,55
2017-05-08T13:08:44.753Z,55
2017-05-08T13:09:57.057Z,55
2017-05-08T13:11:09.364Z,55
2017-05-08T13:12:22.149Z,55
2017-05-08T13:13:34.933Z,55
2017-05-08T13:14:47.714Z,55
2017-05-08T13:16:00.500Z,55
2017-05-08T13:17:13.288Z,55
2017-05-08T13:18:25.607Z,50
2017-05-08T13:19:38.393Z,50
2017-05-08T13:20:50.697Z,55
2017-05-08T13:22:03.487Z,50
2017-05-08T13:23:15.342Z,50
2017-05-08T13:24:28.134Z,50
2017-05-08T13:25:40.437Z,55
2017-05-08T13:26:53.226Z,55
2017-05-08T13:28:06.017Z,50
2017-05-08T13:29:18.809Z,50
2017-05-08T13:30:31.600Z,50
2017-05-08T13:31:44.389Z,50
2017-05-08T13:32:57.182Z,50
2017-05-08T13:34:09.975Z,50
2017-05-08T13:35:22.781Z,50
2017-05-08T13:36:35.089Z,50
2017-05-08T13:37:47.894Z,50
2017-05-08T13:39:00.845Z,50
2017-05-08T13:40:13.157Z,50
2017-05-08T13:41:25.960Z,50
2017-05-08T13:42:38.750Z,55
2017-05-08T13:43:51.067Z,50
2017-05-08T13:45:04.061Z,50
2017-05-08T13:46:15.405Z,50
2017-05-08T13:47:27.231Z,50
2017-05-08T13:48:40.018Z,50
2017-05-08T13:49:52.814Z,50
2017-05-08T13:51:05.602Z,50
2017-05-08T13:52:18.409Z,50
2017-05-08T13:53:30.721Z,50
2017-05-08T13:54:43.513Z,55
2017-05-08T13:55:56.305Z,50
2017-05-08T13:57:09.104Z,50
2017-05-08T13:58:21.410Z,50
2017-05-08T13:59:34.198Z,50
2017-05-08T14:00:47.188Z,55
2017-05-08T14:01:59.978Z,50
2017-05-08T14:03:12.291Z,50
2017-05-08T14:04:25.080Z,50
2017-05-08T14:05:37.406Z,50
2017-05-08T14:06:50.426Z,50
2017-05-08T14:08:03.212Z,55
2017-05-08T14:09:15.524Z,50
2017-05-08T14:10:28.315Z,55
2017-05-08T14:11:41.438Z,55
2017-05-08T14:12:53.750Z,55
2017-05-08T14:14:05.577Z,55
2017-05-08T14:15:17.883Z,55
2017-05-08T14:16:30.190Z,55
2017-05-08T14:17:42.649Z,55
2017-05-08T14:18:55.446Z,50
2017-05-08T14:20:07.275Z,50
2017-05-08T14:21:20.082Z,50
2017-05-08T14:22:32.393Z,50
2017-05-08T14:23:45.189Z,50
2017-05-08T14:24:57.980Z,50
2017-05-08T14:26:10.290Z,50
2017-05-08T14:27:23.282Z,50
2017-05-08T14:28:36.070Z,50
2017-05-08T14:29:47.891Z,50
2017-05-08T14:31:00.681Z,55
2017-05-08T14:32:13.473Z,55
2017-05-08T14:33:54.413Z,50
2017-05-08T14:35:06.717Z,50
2017-05-08T14:36:18.541Z,50
2017-05-08T14:37:30.851Z,45
2017-05-08T14:38:43.643Z,45
2017-05-08T14:39:55.951Z,50
2017-05-08T14:41:08.742Z,50
2017-05-08T14:42:20.573Z,50
2017-05-08T14:43:33.565Z,45
2017-05-08T14:44:46.355Z,45
2017-05-08T14:45:59.145Z,45
2017-05-08T14:47:11.932Z,45
2017-05-08T14:48:24.720Z,45
2017-05-08T14:49:38.009Z,45
2017-05-08T14:50:50.809Z,40
2017-05-08T14:52:03.598Z,40
2017-05-08T14:53:15.901Z,40
2017-05-08T14:54:28.695Z,40
2017-05-08T14:55:40.996Z,40
2017-05-08T14:56:53.782Z,40
2017-05-08T14:58:06.567Z,35
2017-05-08T14:59:18.872Z,40
2017-05-08T15:00:31.476Z,40
2017-05-08T15:01:44.265Z,40
2017-05-08T15:02:57.056Z,35
2017-05-08T15:04:09.851Z,35
2017-05-08T15:05:22.163Z,35
2017-05-08T15:06:34.956Z,35
2017-05-08T15:07:47.747Z,35
2017-05-08T15:09:00.529Z,35
2017-05-08T15:10:13.317Z,30
2017-05-08T15:11:25.630Z,30
2017-05-08T15:12:38.419Z,30
2017-05-08T15:13:50.721Z,30
2017-05-08T15:15:03.510Z,30
2017-05-08T15:16:15.815Z,30
2017-05-08T15:17:28.601Z,30
2017-05-08T15:18:41.390Z,30
2017-05-08T15:19:54.178Z,30
2017-05-08T15:21:06.488Z,30
2017-05-08T15:22:19.277Z,30
2017-05-08T15:23:31.577Z,30
2017-05-08T15:24:43.888Z,30
2017-05-08T15:25:56.675Z,30
2017-05-08T15:27:09.625Z,25
2017-05-08T15:28:22.412Z,25
2017-05-08T15:29:35.201Z,25
2017-05-08T15:30:47.503Z,25
2017-05-08T15:32:00.292Z,25
2017-05-08T15:33:13.082Z,25
2017-05-08T15:34:25.870Z,25
2017-05-08T15:35:38.660Z,25
2017-05-08T15:36:50.489Z,25
2017-05-08T15:38:02.795Z,25
2017-05-08T15:39:15.584Z,25
2017-05-08T15:40:28.368Z,25
2017-05-08T15:41:40.674Z,25
2017-05-08T15:42:53.464Z,25
2017-05-08T15:44:06.250Z,25
2017-05-08T15:45:19.339Z,25
2017-05-08T15:46:31.644Z,25
2017-05-08T15:47:44.436Z,20
2017-05-08T15:48:57.227Z,20
2017-05-08T15:50:10.017Z,20
2017-05-08T15:51:22.814Z,20
2017-05-08T15:52:34.638Z,20
2017-05-08T15:53:47.628Z,20
2017-05-08T15:55:00.410Z,20
2017-05-08T15:56:13.200Z,20
2017-05-08T15:57:26.003Z,20
2017-05-08T15:58:38.309Z,20
2017-05-08T15:59:51.096Z,20
2017-05-08T16:01:03.891Z,20
2017-05-08T16:02:16.201Z,20
2017-05-08T16:03:28.986Z,20
2017-05-08T16:04:41.783Z,20
2017-05-08T16:05:54.099Z,20
2017-05-08T16:07:06.895Z,20
2017-05-08T16:08:19.198Z,20
2017-05-08T16:09:31.987Z,20
2017-05-08T16:10:44.772Z,20
2017-05-08T16:11:57.558Z,20
2017-05-08T16:13:09.863Z,20
2017-05-08T16:14:22.655Z,20
2017-05-08T16:15:35.452Z,20
2017-05-08T16:16:48.235Z,25
2017-05-08T16:18:01.025Z,25
2017-05-08T16:19:13.808Z,25
2017-05-08T16:20:26.891Z,25
2017-05-08T16:21:39.678Z,20
2017-05-08T16:22:52.463Z,20
2017-05-08T16:24:04.764Z,20
2017-05-08T16:25:17.753Z,20
2017-05-08T16:26:30.740Z,20
2017-05-08T16:27:43.526Z,20
2017-05-08T16:28:56.313Z,20
2017-05-08T16:30:08.622Z,20
2017-05-08T16:31:21.405Z,20
2017-05-08T16:32:34.191Z,20
2017-05-08T16:33:46.504Z,20
2017-05-08T16:34:58.819Z,25
2017-05-08T16:36:11.605Z,25
2017-05-08T16:37:24.688Z,20
2017-05-08T16:38:37.472Z,20
2017-05-08T16:39:50.257Z,20
2017-05-08T16:41:02.563Z,20
2017-05-08T16:42:15.359Z,25
2017-05-08T16:43:28.141Z,25
2017-05-08T16:44:40.925Z,25
2017-05-08T16:45:53.715Z,25
2017-05-08T16:47:06.496Z,25
2017-05-08T16:48:19.481Z,20
2017-05-08T16:49:32.263Z,20
2017-05-08T16:50:45.065Z,20
2017-05-08T16:51:57.853Z,20
2017-05-08T16:53:10.641Z,20
2017-05-08T16:54:23.445Z,20
2017-05-08T16:55:35.289Z,20
2017-05-08T16:56:48.079Z,20
2017-05-08T16:58:00.863Z,20
2017-05-08T16:59:13.799Z,20
2017-05-08T17:00:26.106Z,20
2017-05-08T17:01:38.891Z,20
2017-05-08T17:02:51.674Z,20
2017-05-08T17:04:04.456Z,20
2017-05-08T17:05:17.240Z,20
2017-05-08T17:06:30.024Z,15
2017-05-08T17:07:42.805Z,15
2017-05-08T17:08:55.588Z,15
2017-05-08T17:10:08.523Z,10
2017-05-08T17:11:21.306Z,10
2017-05-08T17:12:34.093Z,10
2017-05-08T17:13:46.890Z,15
2017-05-08T17:15:14.050Z,15
2017-05-08T17:16:26.352Z,10
2017-05-08T17:17:39.149Z,10
2017-05-08T17:18:51.466Z,10
2017-05-08T17:20:03.790Z,10
2017-05-08T17:21:15.621Z,15
2017-05-08T17:22:27.931Z,15
2017-05-08T17:23:40.716Z,15
2017-05-08T17:24:53.503Z,15
2017-05-08T17:26:06.298Z,15
2017-05-08T17:27:18.130Z,20
2017-05-08T17:28:30.914Z,15
2017-05-08T17:29:43.427Z,10
2017-05-08T17:30:56.222Z,10
2017-05-08T17:32:09.050Z,10
2017-05-08T17:33:21.839Z,10
2017-05-08T17:34:34.627Z,10
2017-05-08T17:35:48.270Z,15
2017-05-08T17:37:00.585Z,10
2017-05-08T17:38:12.891Z,10
2017-05-08T17:39:24.232Z,15
2017-05-08T17:40:37.226Z,10
2017-05-08T17:41:50.026Z,10